sensor_id;sensor_type;location;lat;lon;timestamp;P1;durP1;ratioP1;P2;durP2;ratioP2
2748;SDS011;1382;52.142;11.618;2023-04-01T00:00:14;2.77;;;1.43;;
2748;SDS011;1382;52.142;11.618;2023-04-01T00:02:41;2.87;;;1.03;;
2748;SDS011;1382;52.142;11.618;2023-04-01T00:05:09;4.43;;;1.67;;
2748;SDS011;1382;52.142;11.618;2023-04-01T00:07:37;3.53;;;1.40;;
2748;SDS011;1382;52.142;11.618;2023-04-01T00:10:05;2.87;;;1.07;;
2748;SDS011;1382;52.142;11.618;2023-04-01T00:12:33;2.53;;;1.20;;
2748;SDS011;1382;52.142;11.618;2023-04-01T00:15:00;5.50;;;1.50;;
2748;SDS011;1382;52.142;11.618;2023-04-01T00:17:26;2.97;;;1.07;;
2748;SDS011;1382;52.142;11.618;2023-04-01T00:19:54;2.23;;;1.07;;
2748;SDS011;1382;52.142;11.618;2023-04-01T00:22:26;4.17;;;1.23;;
2748;SDS011;1382;52.142;11.618;2023-04-01T00:24:53;3.10;;;1.40;;
2748;SDS011;1382;52.142;11.618;2023-04-01T00:27:20;4.40;;;1.27;;
2748;SDS011;1382;52.142;11.618;2023-04-01T00:29:46;3.13;;;1.40;;
2748;SDS011;1382;52.142;11.618;2023-04-01T00:32:13;4.70;;;1.50;;
2748;SDS011;1382;52.142;11.618;2023-04-01T00:34:41;4.37;;;1.57;;
2748;SDS011;1382;52.142;11.618;2023-04-01T00:37:07;2.87;;;1.33;;
2748;SDS011;1382;52.142;11.618;2023-04-01T00:39:36;5.40;;;1.40;;
2748;SDS011;1382;52.142;11.618;2023-04-01T00:42:03;3.63;;;1.40;;
2748;SDS011;1382;52.142;11.618;2023-04-01T00:44:31;4.00;;;1.63;;
2748;SDS011;1382;52.142;11.618;2023-04-01T00:46:59;6.33;;;2.37;;
2748;SDS011;1382;52.142;11.618;2023-04-01T00:49:28;6.30;;;2.20;;
2748;SDS011;1382;52.142;11.618;2023-04-01T00:51:58;2.80;;;1.50;;
2748;SDS011;1382;52.142;11.618;2023-04-01T00:54:27;6.60;;;2.10;;
2748;SDS011;1382;52.142;11.618;2023-04-01T00:56:57;3.07;;;1.60;;
2748;SDS011;1382;52.142;11.618;2023-04-01T00:59:28;4.70;;;2.00;;
2748;SDS011;1382;52.142;11.618;2023-04-01T01:01:57;3.43;;;1.60;;
2748;SDS011;1382;52.142;11.618;2023-04-01T01:04:25;3.30;;;1.77;;
2748;SDS011;1382;52.142;11.618;2023-04-01T01:06:56;3.67;;;1.43;;
2748;SDS011;1382;52.142;11.618;2023-04-01T01:09:37;4.53;;;1.73;;
2748;SDS011;1382;52.142;11.618;2023-04-01T01:12:13;4.20;;;1.50;;
2748;SDS011;1382;52.142;11.618;2023-04-01T01:14:45;3.30;;;1.60;;
2748;SDS011;1382;52.142;11.618;2023-04-01T01:17:20;2.80;;;1.43;;
2748;SDS011;1382;52.142;11.618;2023-04-01T01:20:04;2.60;;;1.40;;
2748;SDS011;1382;52.142;11.618;2023-04-01T01:22:52;5.10;;;1.73;;
2748;SDS011;1382;52.142;11.618;2023-04-01T01:25:36;4.40;;;1.57;;
2748;SDS011;1382;52.142;11.618;2023-04-01T01:28:14;5.40;;;1.60;;
2748;SDS011;1382;52.142;11.618;2023-04-01T01:30:57;4.07;;;2.10;;
2748;SDS011;1382;52.142;11.618;2023-04-01T01:36:19;5.90;;;1.70;;
2748;SDS011;1382;52.142;11.618;2023-04-01T01:38:47;4.00;;;2.00;;
2748;SDS011;1382;52.142;11.618;2023-04-01T01:41:16;6.33;;;1.40;;
2748;SDS011;1382;52.142;11.618;2023-04-01T01:43:46;7.00;;;1.87;;
2748;SDS011;1382;52.142;11.618;2023-04-01T01:46:17;4.57;;;1.77;;
2748;SDS011;1382;52.142;11.618;2023-04-01T01:48:47;5.37;;;1.40;;
2748;SDS011;1382;52.142;11.618;2023-04-01T01:51:15;4.40;;;1.27;;
2748;SDS011;1382;52.142;11.618;2023-04-01T01:53:44;5.10;;;1.80;;
2748;SDS011;1382;52.142;11.618;2023-04-01T01:56:11;3.33;;;1.83;;
2748;SDS011;1382;52.142;11.618;2023-04-01T01:58:39;10.07;;;1.63;;
2748;SDS011;1382;52.142;11.618;2023-04-01T02:01:10;4.00;;;1.30;;
2748;SDS011;1382;52.142;11.618;2023-04-01T02:03:40;2.80;;;1.53;;
2748;SDS011;1382;52.142;11.618;2023-04-01T02:06:09;7.07;;;1.93;;
2748;SDS011;1382;52.142;11.618;2023-04-01T02:08:40;1.93;;;1.70;;
2748;SDS011;1382;52.142;11.618;2023-04-01T02:11:13;4.70;;;1.67;;
2748;SDS011;1382;52.142;11.618;2023-04-01T02:13:43;4.03;;;1.57;;
2748;SDS011;1382;52.142;11.618;2023-04-01T02:16:13;6.43;;;2.20;;
2748;SDS011;1382;52.142;11.618;2023-04-01T02:18:44;4.83;;;1.83;;
2748;SDS011;1382;52.142;11.618;2023-04-01T02:21:13;4.00;;;1.97;;
2748;SDS011;1382;52.142;11.618;2023-04-01T02:23:41;6.33;;;1.80;;
2748;SDS011;1382;52.142;11.618;2023-04-01T02:26:10;3.63;;;1.93;;
2748;SDS011;1382;52.142;11.618;2023-04-01T02:28:38;2.80;;;1.80;;
2748;SDS011;1382;52.142;11.618;2023-04-01T02:31:07;7.80;;;2.43;;
2748;SDS011;1382;52.142;11.618;2023-04-01T02:33:35;3.03;;;1.63;;
2748;SDS011;1382;52.142;11.618;2023-04-01T02:36:04;4.80;;;1.43;;
2748;SDS011;1382;52.142;11.618;2023-04-01T02:38:31;4.50;;;2.20;;
2748;SDS011;1382;52.142;11.618;2023-04-01T02:41:02;4.73;;;1.63;;
2748;SDS011;1382;52.142;11.618;2023-04-01T02:43:29;2.70;;;1.50;;
2748;SDS011;1382;52.142;11.618;2023-04-01T02:45:56;4.93;;;2.00;;
2748;SDS011;1382;52.142;11.618;2023-04-01T02:48:23;5.73;;;2.33;;
2748;SDS011;1382;52.142;11.618;2023-04-01T02:50:49;2.40;;;1.40;;
2748;SDS011;1382;52.142;11.618;2023-04-01T02:53:16;5.50;;;1.90;;
2748;SDS011;1382;52.142;11.618;2023-04-01T02:55:43;2.63;;;1.37;;
2748;SDS011;1382;52.142;11.618;2023-04-01T02:58:11;3.83;;;2.33;;
2748;SDS011;1382;52.142;11.618;2023-04-01T03:00:38;7.23;;;1.73;;
2748;SDS011;1382;52.142;11.618;2023-04-01T03:03:05;2.23;;;1.60;;
2748;SDS011;1382;52.142;11.618;2023-04-01T03:05:32;1.87;;;1.70;;
2748;SDS011;1382;52.142;11.618;2023-04-01T03:07:59;4.70;;;2.53;;
2748;SDS011;1382;52.142;11.618;2023-04-01T03:10:26;8.27;;;2.13;;
2748;SDS011;1382;52.142;11.618;2023-04-01T03:12:53;5.07;;;1.87;;
2748;SDS011;1382;52.142;11.618;2023-04-01T03:15:21;4.73;;;2.00;;
2748;SDS011;1382;52.142;11.618;2023-04-01T03:17:47;3.80;;;1.90;;
2748;SDS011;1382;52.142;11.618;2023-04-01T03:20:14;4.27;;;2.63;;
2748;SDS011;1382;52.142;11.618;2023-04-01T03:22:41;4.20;;;1.70;;
2748;SDS011;1382;52.142;11.618;2023-04-01T03:25:08;3.97;;;2.03;;
2748;SDS011;1382;52.142;11.618;2023-04-01T03:27:36;2.50;;;1.53;;
2748;SDS011;1382;52.142;11.618;2023-04-01T03:30:04;3.93;;;1.67;;
2748;SDS011;1382;52.142;11.618;2023-04-01T03:32:34;2.90;;;1.93;;
2748;SDS011;1382;52.142;11.618;2023-04-01T03:35:01;3.93;;;1.53;;
2748;SDS011;1382;52.142;11.618;2023-04-01T03:37:27;7.83;;;2.63;;
2748;SDS011;1382;52.142;11.618;2023-04-01T03:39:54;6.00;;;2.30;;
2748;SDS011;1382;52.142;11.618;2023-04-01T03:42:21;3.33;;;1.90;;
2748;SDS011;1382;52.142;11.618;2023-04-01T03:44:47;6.37;;;1.97;;
2748;SDS011;1382;52.142;11.618;2023-04-01T03:47:14;5.47;;;1.77;;
2748;SDS011;1382;52.142;11.618;2023-04-01T03:49:42;7.33;;;2.60;;
2748;SDS011;1382;52.142;11.618;2023-04-01T03:52:09;3.70;;;1.47;;
2748;SDS011;1382;52.142;11.618;2023-04-01T03:54:36;6.43;;;2.03;;
2748;SDS011;1382;52.142;11.618;2023-04-01T03:57:03;3.50;;;2.20;;
2748;SDS011;1382;52.142;11.618;2023-04-01T03:59:30;5.23;;;1.80;;
2748;SDS011;1382;52.142;11.618;2023-04-01T04:01:57;5.30;;;2.40;;
2748;SDS011;1382;52.142;11.618;2023-04-01T04:04:24;3.10;;;2.20;;
2748;SDS011;1382;52.142;11.618;2023-04-01T04:06:52;4.87;;;2.30;;
2748;SDS011;1382;52.142;11.618;2023-04-01T04:09:18;4.27;;;2.30;;
2748;SDS011;1382;52.142;11.618;2023-04-01T04:11:45;1.60;;;1.33;;
2748;SDS011;1382;52.142;11.618;2023-04-01T04:14:12;5.43;;;1.90;;
2748;SDS011;1382;52.142;11.618;2023-04-01T04:16:39;7.53;;;2.70;;
2748;SDS011;1382;52.142;11.618;2023-04-01T04:19:05;3.37;;;2.20;;
2748;SDS011;1382;52.142;11.618;2023-04-01T04:21:32;5.00;;;1.97;;
2748;SDS011;1382;52.142;11.618;2023-04-01T04:24:00;7.43;;;2.07;;
2748;SDS011;1382;52.142;11.618;2023-04-01T04:26:28;3.67;;;2.23;;
2748;SDS011;1382;52.142;11.618;2023-04-01T04:28:55;6.23;;;2.10;;
2748;SDS011;1382;52.142;11.618;2023-04-01T04:31:22;4.60;;;1.90;;
2748;SDS011;1382;52.142;11.618;2023-04-01T04:33:51;3.30;;;1.87;;
2748;SDS011;1382;52.142;11.618;2023-04-01T04:36:18;3.60;;;1.87;;
2748;SDS011;1382;52.142;11.618;2023-04-01T04:38:47;5.47;;;1.97;;
2748;SDS011;1382;52.142;11.618;2023-04-01T04:41:16;5.53;;;1.87;;
2748;SDS011;1382;52.142;11.618;2023-04-01T04:43:48;7.43;;;2.73;;
2748;SDS011;1382;52.142;11.618;2023-04-01T04:46:16;5.70;;;2.10;;
2748;SDS011;1382;52.142;11.618;2023-04-01T04:48:43;3.13;;;1.83;;
2748;SDS011;1382;52.142;11.618;2023-04-01T04:51:12;4.33;;;1.80;;
2748;SDS011;1382;52.142;11.618;2023-04-01T04:53:40;3.17;;;2.17;;
2748;SDS011;1382;52.142;11.618;2023-04-01T04:56:10;2.87;;;1.57;;
2748;SDS011;1382;52.142;11.618;2023-04-01T04:58:39;4.47;;;2.53;;
2748;SDS011;1382;52.142;11.618;2023-04-01T05:01:07;4.90;;;1.73;;
2748;SDS011;1382;52.142;11.618;2023-04-01T05:03:35;3.87;;;2.20;;
2748;SDS011;1382;52.142;11.618;2023-04-01T05:06:02;3.27;;;2.10;;
2748;SDS011;1382;52.142;11.618;2023-04-01T05:08:29;3.97;;;1.50;;
2748;SDS011;1382;52.142;11.618;2023-04-01T05:10:55;5.63;;;1.97;;
2748;SDS011;1382;52.142;11.618;2023-04-01T05:13:22;3.87;;;1.97;;
2748;SDS011;1382;52.142;11.618;2023-04-01T05:15:50;5.27;;;1.43;;
2748;SDS011;1382;52.142;11.618;2023-04-01T05:18:17;2.30;;;2.03;;
2748;SDS011;1382;52.142;11.618;2023-04-01T05:20:48;6.60;;;1.93;;
2748;SDS011;1382;52.142;11.618;2023-04-01T05:23:15;8.53;;;2.23;;
2748;SDS011;1382;52.142;11.618;2023-04-01T05:25:42;3.23;;;1.63;;
2748;SDS011;1382;52.142;11.618;2023-04-01T05:28:09;5.53;;;2.20;;
2748;SDS011;1382;52.142;11.618;2023-04-01T05:30:36;5.67;;;1.83;;
2748;SDS011;1382;52.142;11.618;2023-04-01T05:33:06;3.47;;;2.10;;
2748;SDS011;1382;52.142;11.618;2023-04-01T05:35:33;4.07;;;1.90;;
2748;SDS011;1382;52.142;11.618;2023-04-01T05:38:01;2.40;;;1.60;;
2748;SDS011;1382;52.142;11.618;2023-04-01T05:40:28;2.33;;;1.90;;
2748;SDS011;1382;52.142;11.618;2023-04-01T05:42:55;8.60;;;2.40;;
2748;SDS011;1382;52.142;11.618;2023-04-01T05:45:21;2.30;;;1.50;;
2748;SDS011;1382;52.142;11.618;2023-04-01T05:47:48;4.40;;;2.20;;
2748;SDS011;1382;52.142;11.618;2023-04-01T05:50:17;3.73;;;1.77;;
2748;SDS011;1382;52.142;11.618;2023-04-01T05:52:44;5.17;;;1.70;;
2748;SDS011;1382;52.142;11.618;2023-04-01T05:55:11;3.20;;;2.00;;
2748;SDS011;1382;52.142;11.618;2023-04-01T05:57:38;2.77;;;1.60;;
2748;SDS011;1382;52.142;11.618;2023-04-01T06:00:05;2.80;;;2.00;;
2748;SDS011;1382;52.142;11.618;2023-04-01T06:02:33;5.17;;;1.67;;
2748;SDS011;1382;52.142;11.618;2023-04-01T06:05:03;2.80;;;1.93;;
2748;SDS011;1382;52.142;11.618;2023-04-01T06:07:38;3.33;;;1.80;;
2748;SDS011;1382;52.142;11.618;2023-04-01T06:10:09;4.60;;;1.97;;
2748;SDS011;1382;52.142;11.618;2023-04-01T06:12:50;3.50;;;1.53;;
2748;SDS011;1382;52.142;11.618;2023-04-01T06:15:25;4.07;;;1.80;;
2748;SDS011;1382;52.142;11.618;2023-04-01T06:18:07;2.10;;;1.70;;
2748;SDS011;1382;52.142;11.618;2023-04-01T06:20:46;8.93;;;1.77;;
2748;SDS011;1382;52.142;11.618;2023-04-01T06:23:34;4.53;;;1.83;;
2748;SDS011;1382;52.142;11.618;2023-04-01T06:26:12;3.67;;;1.93;;
2748;SDS011;1382;52.142;11.618;2023-04-01T06:28:52;3.43;;;2.33;;
2748;SDS011;1382;52.142;11.618;2023-04-01T06:31:40;5.50;;;1.70;;
2748;SDS011;1382;52.142;11.618;2023-04-01T06:34:29;2.60;;;1.90;;
2748;SDS011;1382;52.142;11.618;2023-04-01T06:37:12;2.23;;;1.43;;
2748;SDS011;1382;52.142;11.618;2023-04-01T06:40:02;7.30;;;2.13;;
2748;SDS011;1382;52.142;11.618;2023-04-01T06:42:48;3.43;;;2.17;;
2748;SDS011;1382;52.142;11.618;2023-04-01T06:45:28;5.67;;;2.10;;
2748;SDS011;1382;52.142;11.618;2023-04-01T06:48:06;2.57;;;1.70;;
2748;SDS011;1382;52.142;11.618;2023-04-01T06:50:48;4.93;;;1.70;;
2748;SDS011;1382;52.142;11.618;2023-04-01T06:53:54;3.47;;;2.10;;
2748;SDS011;1382;52.142;11.618;2023-04-01T06:56:30;1.80;;;1.10;;
2748;SDS011;1382;52.142;11.618;2023-04-01T06:59:15;4.30;;;2.00;;
2748;SDS011;1382;52.142;11.618;2023-04-01T07:01:45;4.33;;;1.70;;
2748;SDS011;1382;52.142;11.618;2023-04-01T07:04:16;5.13;;;1.93;;
2748;SDS011;1382;52.142;11.618;2023-04-01T07:06:47;4.20;;;1.70;;
2748;SDS011;1382;52.142;11.618;2023-04-01T07:09:18;2.93;;;1.60;;
2748;SDS011;1382;52.142;11.618;2023-04-01T07:11:48;6.40;;;2.20;;
2748;SDS011;1382;52.142;11.618;2023-04-01T07:14:17;3.10;;;1.90;;
2748;SDS011;1382;52.142;11.618;2023-04-01T07:16:49;4.10;;;1.93;;
2748;SDS011;1382;52.142;11.618;2023-04-01T07:19:20;2.93;;;1.47;;
2748;SDS011;1382;52.142;11.618;2023-04-01T07:21:54;2.73;;;1.53;;
2748;SDS011;1382;52.142;11.618;2023-04-01T07:24:26;3.90;;;1.43;;
2748;SDS011;1382;52.142;11.618;2023-04-01T07:26:59;3.10;;;1.80;;
2748;SDS011;1382;52.142;11.618;2023-04-01T07:29:26;3.77;;;2.00;;
2748;SDS011;1382;52.142;11.618;2023-04-01T07:32:04;3.87;;;1.80;;
2748;SDS011;1382;52.142;11.618;2023-04-01T07:34:41;2.03;;;1.50;;
2748;SDS011;1382;52.142;11.618;2023-04-01T07:37:20;3.00;;;1.80;;
2748;SDS011;1382;52.142;11.618;2023-04-01T07:39:55;3.33;;;1.97;;
2748;SDS011;1382;52.142;11.618;2023-04-01T07:42:37;2.60;;;1.67;;
2748;SDS011;1382;52.142;11.618;2023-04-01T07:45:16;3.80;;;2.10;;
2748;SDS011;1382;52.142;11.618;2023-04-01T07:47:52;1.73;;;1.50;;
2748;SDS011;1382;52.142;11.618;2023-04-01T07:50:29;4.00;;;1.90;;
2748;SDS011;1382;52.142;11.618;2023-04-01T07:53:01;4.90;;;1.40;;
2748;SDS011;1382;52.142;11.618;2023-04-01T07:55:36;4.07;;;1.70;;
2748;SDS011;1382;52.142;11.618;2023-04-01T07:58:12;2.67;;;2.20;;
2748;SDS011;1382;52.142;11.618;2023-04-01T08:00:47;12.93;;;2.23;;
2748;SDS011;1382;52.142;11.618;2023-04-01T08:03:25;7.33;;;2.50;;
2748;SDS011;1382;52.142;11.618;2023-04-01T08:06:10;3.90;;;1.53;;
2748;SDS011;1382;52.142;11.618;2023-04-01T08:08:46;3.40;;;1.77;;
2748;SDS011;1382;52.142;11.618;2023-04-01T08:11:29;1.50;;;1.40;;
2748;SDS011;1382;52.142;11.618;2023-04-01T08:14:06;2.67;;;1.37;;
2748;SDS011;1382;52.142;11.618;2023-04-01T08:16:41;5.60;;;1.83;;
2748;SDS011;1382;52.142;11.618;2023-04-01T08:19:15;3.23;;;1.80;;
2748;SDS011;1382;52.142;11.618;2023-04-01T08:21:54;2.97;;;1.70;;
2748;SDS011;1382;52.142;11.618;2023-04-01T08:24:25;2.37;;;1.50;;
2748;SDS011;1382;52.142;11.618;2023-04-01T08:27:13;1.47;;;1.17;;
2748;SDS011;1382;52.142;11.618;2023-04-01T08:29:48;2.07;;;1.37;;
2748;SDS011;1382;52.142;11.618;2023-04-01T08:32:20;2.63;;;1.50;;
2748;SDS011;1382;52.142;11.618;2023-04-01T08:34:55;1.43;;;1.07;;
2748;SDS011;1382;52.142;11.618;2023-04-01T08:37:30;2.37;;;1.30;;
2748;SDS011;1382;52.142;11.618;2023-04-01T08:40:02;2.57;;;1.53;;
2748;SDS011;1382;52.142;11.618;2023-04-01T08:43:00;1.90;;;1.03;;
2748;SDS011;1382;52.142;11.618;2023-04-01T08:45:44;1.20;;;1.00;;
2748;SDS011;1382;52.142;11.618;2023-04-01T08:48:27;3.63;;;1.57;;
2748;SDS011;1382;52.142;11.618;2023-04-01T08:54:22;2.30;;;1.50;;
2748;SDS011;1382;52.142;11.618;2023-04-01T08:57:21;2.00;;;0.90;;
2748;SDS011;1382;52.142;11.618;2023-04-01T09:00:05;2.33;;;1.27;;
2748;SDS011;1382;52.142;11.618;2023-04-01T09:02:51;3.47;;;1.10;;
2748;SDS011;1382;52.142;11.618;2023-04-01T09:08:41;3.70;;;1.37;;
2748;SDS011;1382;52.142;11.618;2023-04-01T09:11:22;3.30;;;1.43;;
2748;SDS011;1382;52.142;11.618;2023-04-01T09:14:17;2.30;;;1.20;;
2748;SDS011;1382;52.142;11.618;2023-04-01T09:17:01;3.30;;;1.40;;
2748;SDS011;1382;52.142;11.618;2023-04-01T09:19:43;3.10;;;1.30;;
2748;SDS011;1382;52.142;11.618;2023-04-01T09:22:29;1.80;;;1.60;;
2748;SDS011;1382;52.142;11.618;2023-04-01T09:25:15;3.57;;;1.40;;
2748;SDS011;1382;52.142;11.618;2023-04-01T09:27:57;1.93;;;1.37;;
2748;SDS011;1382;52.142;11.618;2023-04-01T09:30:46;1.70;;;1.00;;
2748;SDS011;1382;52.142;11.618;2023-04-01T09:33:46;3.10;;;1.57;;
2748;SDS011;1382;52.142;11.618;2023-04-01T09:36:44;2.10;;;1.00;;
2748;SDS011;1382;52.142;11.618;2023-04-01T09:39:19;1.80;;;1.40;;
2748;SDS011;1382;52.142;11.618;2023-04-01T09:42:06;1.80;;;1.00;;
2748;SDS011;1382;52.142;11.618;2023-04-01T09:44:41;1.27;;;1.10;;
2748;SDS011;1382;52.142;11.618;2023-04-01T09:47:16;6.03;;;1.20;;
2748;SDS011;1382;52.142;11.618;2023-04-01T09:50:00;2.83;;;1.33;;
2748;SDS011;1382;52.142;11.618;2023-04-01T09:52:45;2.50;;;1.17;;
2748;SDS011;1382;52.142;11.618;2023-04-01T09:55:21;3.43;;;1.20;;
2748;SDS011;1382;52.142;11.618;2023-04-01T09:58:31;2.13;;;1.20;;
2748;SDS011;1382;52.142;11.618;2023-04-01T10:01:19;1.67;;;0.90;;
2748;SDS011;1382;52.142;11.618;2023-04-01T10:13:34;2.73;;;1.13;;
2748;SDS011;1382;52.142;11.618;2023-04-01T10:16:34;1.60;;;1.13;;
2748;SDS011;1382;52.142;11.618;2023-04-01T10:19:39;1.30;;;1.10;;
2748;SDS011;1382;52.142;11.618;2023-04-01T10:22:35;3.63;;;1.40;;
2748;SDS011;1382;52.142;11.618;2023-04-01T10:25:29;3.53;;;0.97;;
2748;SDS011;1382;52.142;11.618;2023-04-01T10:28:35;3.90;;;1.03;;
2748;SDS011;1382;52.142;11.618;2023-04-01T10:31:43;2.73;;;1.27;;
2748;SDS011;1382;52.142;11.618;2023-04-01T10:34:27;2.40;;;1.13;;
2748;SDS011;1382;52.142;11.618;2023-04-01T10:37:16;3.33;;;1.43;;
2748;SDS011;1382;52.142;11.618;2023-04-01T10:43:21;1.17;;;0.90;;
2748;SDS011;1382;52.142;11.618;2023-04-01T10:46:39;3.33;;;1.20;;
2748;SDS011;1382;52.142;11.618;2023-04-01T10:49:34;1.87;;;1.27;;
2748;SDS011;1382;52.142;11.618;2023-04-01T10:52:21;3.40;;;1.10;;
2748;SDS011;1382;52.142;11.618;2023-04-01T10:55:14;6.93;;;1.50;;
2748;SDS011;1382;52.142;11.618;2023-04-01T10:58:08;2.20;;;0.93;;
2748;SDS011;1382;52.142;11.618;2023-04-01T11:01:00;2.40;;;0.93;;
2748;SDS011;1382;52.142;11.618;2023-04-01T11:07:03;1.10;;;1.00;;
2748;SDS011;1382;52.142;11.618;2023-04-01T11:13:10;5.60;;;1.43;;
2748;SDS011;1382;52.142;11.618;2023-04-01T11:16:27;1.60;;;0.70;;
2748;SDS011;1382;52.142;11.618;2023-04-01T11:19:27;4.80;;;1.10;;
2748;SDS011;1382;52.142;11.618;2023-04-01T11:25:20;2.23;;;0.93;;
2748;SDS011;1382;52.142;11.618;2023-04-01T11:28:01;5.00;;;1.00;;
2748;SDS011;1382;52.142;11.618;2023-04-01T11:30:49;1.67;;;0.90;;
2748;SDS011;1382;52.142;11.618;2023-04-01T11:33:28;3.33;;;0.90;;
2748;SDS011;1382;52.142;11.618;2023-04-01T11:36:03;1.67;;;0.90;;
2748;SDS011;1382;52.142;11.618;2023-04-01T11:38:48;2.77;;;0.87;;
2748;SDS011;1382;52.142;11.618;2023-04-01T11:41:37;2.20;;;1.20;;
2748;SDS011;1382;52.142;11.618;2023-04-01T11:44:12;1.73;;;0.87;;
2748;SDS011;1382;52.142;11.618;2023-04-01T11:46:46;2.13;;;0.90;;
2748;SDS011;1382;52.142;11.618;2023-04-01T11:49:35;1.67;;;1.13;;
2748;SDS011;1382;52.142;11.618;2023-04-01T11:52:19;3.03;;;1.27;;
2748;SDS011;1382;52.142;11.618;2023-04-01T11:55:05;1.77;;;0.90;;
2748;SDS011;1382;52.142;11.618;2023-04-01T11:57:43;1.40;;;1.13;;
2748;SDS011;1382;52.142;11.618;2023-04-01T12:00:20;1.27;;;0.80;;
2748;SDS011;1382;52.142;11.618;2023-04-01T12:03:02;1.17;;;1.07;;
2748;SDS011;1382;52.142;11.618;2023-04-01T12:05:44;2.80;;;1.30;;
2748;SDS011;1382;52.142;11.618;2023-04-01T12:08:19;2.73;;;1.10;;
2748;SDS011;1382;52.142;11.618;2023-04-01T12:10:57;3.97;;;1.70;;
2748;SDS011;1382;52.142;11.618;2023-04-01T12:13:34;1.23;;;1.00;;
2748;SDS011;1382;52.142;11.618;2023-04-01T12:16:15;1.27;;;0.90;;
2748;SDS011;1382;52.142;11.618;2023-04-01T12:18:52;3.43;;;1.23;;
2748;SDS011;1382;52.142;11.618;2023-04-01T12:21:26;1.23;;;0.80;;
2748;SDS011;1382;52.142;11.618;2023-04-01T12:24:02;3.10;;;0.93;;
2748;SDS011;1382;52.142;11.618;2023-04-01T12:26:55;2.33;;;0.80;;
2748;SDS011;1382;52.142;11.618;2023-04-01T12:29:40;7.10;;;0.80;;
2748;SDS011;1382;52.142;11.618;2023-04-01T12:32:19;6.30;;;1.27;;
2748;SDS011;1382;52.142;11.618;2023-04-01T12:37:52;2.03;;;0.70;;
2748;SDS011;1382;52.142;11.618;2023-04-01T12:40:35;1.20;;;0.70;;
2748;SDS011;1382;52.142;11.618;2023-04-01T12:43:23;0.80;;;0.50;;
2748;SDS011;1382;52.142;11.618;2023-04-01T12:46:13;0.70;;;0.50;;
2748;SDS011;1382;52.142;11.618;2023-04-01T12:48:51;3.53;;;1.00;;
2748;SDS011;1382;52.142;11.618;2023-04-01T12:51:41;0.77;;;0.53;;
2748;SDS011;1382;52.142;11.618;2023-04-01T12:54:37;2.27;;;0.77;;
2748;SDS011;1382;52.142;11.618;2023-04-01T12:57:30;1.90;;;0.60;;
2748;SDS011;1382;52.142;11.618;2023-04-01T13:00:12;0.93;;;0.40;;
2748;SDS011;1382;52.142;11.618;2023-04-01T13:02:52;0.80;;;0.47;;
2748;SDS011;1382;52.142;11.618;2023-04-01T13:05:56;1.10;;;0.40;;
2748;SDS011;1382;52.142;11.618;2023-04-01T13:08:48;1.63;;;0.57;;
2748;SDS011;1382;52.142;11.618;2023-04-01T13:11:22;1.80;;;0.77;;
2748;SDS011;1382;52.142;11.618;2023-04-01T13:17:01;1.43;;;0.50;;
2748;SDS011;1382;52.142;11.618;2023-04-01T13:19:36;1.63;;;0.30;;
2748;SDS011;1382;52.142;11.618;2023-04-01T13:22:24;0.60;;;0.40;;
2748;SDS011;1382;52.142;11.618;2023-04-01T13:24:59;2.30;;;0.53;;
2748;SDS011;1382;52.142;11.618;2023-04-01T13:27:33;1.60;;;0.53;;
2748;SDS011;1382;52.142;11.618;2023-04-01T13:30:11;1.17;;;0.30;;
2748;SDS011;1382;52.142;11.618;2023-04-01T13:32:50;0.70;;;0.40;;
2748;SDS011;1382;52.142;11.618;2023-04-01T13:35:26;0.50;;;0.30;;
2748;SDS011;1382;52.142;11.618;2023-04-01T13:38:09;1.53;;;0.50;;
2748;SDS011;1382;52.142;11.618;2023-04-01T13:40:46;1.57;;;0.90;;
2748;SDS011;1382;52.142;11.618;2023-04-01T13:43:30;2.33;;;0.50;;
2748;SDS011;1382;52.142;11.618;2023-04-01T13:46:22;1.17;;;0.60;;
2748;SDS011;1382;52.142;11.618;2023-04-01T13:49:22;1.63;;;1.10;;
2748;SDS011;1382;52.142;11.618;2023-04-01T13:52:03;5.63;;;1.50;;
2748;SDS011;1382;52.142;11.618;2023-04-01T13:54:52;1.00;;;0.90;;
2748;SDS011;1382;52.142;11.618;2023-04-01T13:57:37;4.40;;;1.20;;
2748;SDS011;1382;52.142;11.618;2023-04-01T14:00:18;1.10;;;0.70;;
2748;SDS011;1382;52.142;11.618;2023-04-01T14:02:57;1.00;;;0.80;;
2748;SDS011;1382;52.142;11.618;2023-04-01T14:05:47;1.30;;;1.07;;
2748;SDS011;1382;52.142;11.618;2023-04-01T14:08:26;1.70;;;1.00;;
2748;SDS011;1382;52.142;11.618;2023-04-01T14:11:09;1.30;;;1.20;;
2748;SDS011;1382;52.142;11.618;2023-04-01T14:13:42;1.40;;;1.30;;
2748;SDS011;1382;52.142;11.618;2023-04-01T14:16:27;1.33;;;1.23;;
2748;SDS011;1382;52.142;11.618;2023-04-01T14:19:18;1.93;;;1.50;;
2748;SDS011;1382;52.142;11.618;2023-04-01T14:21:55;0.80;;;0.67;;
2748;SDS011;1382;52.142;11.618;2023-04-01T14:24:32;1.00;;;0.67;;
2748;SDS011;1382;52.142;11.618;2023-04-01T14:27:25;1.90;;;1.40;;
2748;SDS011;1382;52.142;11.618;2023-04-01T14:33:23;1.17;;;1.00;;
2748;SDS011;1382;52.142;11.618;2023-04-01T14:36:02;0.63;;;0.63;;
2748;SDS011;1382;52.142;11.618;2023-04-01T14:38:54;0.97;;;0.97;;
2748;SDS011;1382;52.142;11.618;2023-04-01T14:41:38;1.23;;;0.83;;
2748;SDS011;1382;52.142;11.618;2023-04-01T14:44:29;1.70;;;1.60;;
2748;SDS011;1382;52.142;11.618;2023-04-01T14:47:25;1.77;;;1.67;;
2748;SDS011;1382;52.142;11.618;2023-04-01T14:50:08;2.03;;;1.37;;
2748;SDS011;1382;52.142;11.618;2023-04-01T14:52:38;1.40;;;1.30;;
2748;SDS011;1382;52.142;11.618;2023-04-01T14:55:21;1.40;;;1.30;;
2748;SDS011;1382;52.142;11.618;2023-04-01T14:57:59;2.07;;;1.87;;
2748;SDS011;1382;52.142;11.618;2023-04-01T15:00:39;3.30;;;2.30;;
2748;SDS011;1382;52.142;11.618;2023-04-01T15:03:25;1.33;;;1.23;;
2748;SDS011;1382;52.142;11.618;2023-04-01T15:06:00;1.00;;;0.90;;
2748;SDS011;1382;52.142;11.618;2023-04-01T15:08:56;1.70;;;1.60;;
2748;SDS011;1382;52.142;11.618;2023-04-01T15:11:32;1.30;;;1.20;;
2748;SDS011;1382;52.142;11.618;2023-04-01T15:14:15;4.53;;;2.03;;
2748;SDS011;1382;52.142;11.618;2023-04-01T15:16:52;1.63;;;1.40;;
2748;SDS011;1382;52.142;11.618;2023-04-01T15:19:31;1.23;;;1.13;;
2748;SDS011;1382;52.142;11.618;2023-04-01T15:22:27;3.60;;;2.20;;
2748;SDS011;1382;52.142;11.618;2023-04-01T15:25:16;5.23;;;2.63;;
2748;SDS011;1382;52.142;11.618;2023-04-01T15:27:58;3.20;;;1.93;;
2748;SDS011;1382;52.142;11.618;2023-04-01T15:30:33;1.87;;;1.13;;
2748;SDS011;1382;52.142;11.618;2023-04-01T15:33:09;4.50;;;2.70;;
2748;SDS011;1382;52.142;11.618;2023-04-01T15:35:45;2.80;;;2.20;;
2748;SDS011;1382;52.142;11.618;2023-04-01T15:38:23;2.50;;;2.30;;
2748;SDS011;1382;52.142;11.618;2023-04-01T15:40:59;2.90;;;2.60;;
2748;SDS011;1382;52.142;11.618;2023-04-01T15:43:36;1.83;;;1.63;;
2748;SDS011;1382;52.142;11.618;2023-04-01T15:46:23;1.37;;;1.27;;
2748;SDS011;1382;52.142;11.618;2023-04-01T15:49:01;3.40;;;1.13;;
2748;SDS011;1382;52.142;11.618;2023-04-01T15:51:41;2.07;;;1.93;;
2748;SDS011;1382;52.142;11.618;2023-04-01T15:54:26;0.60;;;0.50;;
2748;SDS011;1382;52.142;11.618;2023-04-01T15:57:04;1.23;;;0.80;;
2748;SDS011;1382;52.142;11.618;2023-04-01T15:59:51;1.20;;;1.10;;
2748;SDS011;1382;52.142;11.618;2023-04-01T16:02:30;2.50;;;1.77;;
2748;SDS011;1382;52.142;11.618;2023-04-01T16:05:03;1.13;;;1.03;;
2748;SDS011;1382;52.142;11.618;2023-04-01T16:07:42;1.43;;;0.80;;
2748;SDS011;1382;52.142;11.618;2023-04-01T16:10:25;1.60;;;1.50;;
2748;SDS011;1382;52.142;11.618;2023-04-01T16:13:14;1.53;;;1.33;;
2748;SDS011;1382;52.142;11.618;2023-04-01T16:15:52;1.63;;;1.20;;
2748;SDS011;1382;52.142;11.618;2023-04-01T16:18:31;1.03;;;0.87;;
2748;SDS011;1382;52.142;11.618;2023-04-01T16:21:06;1.53;;;1.43;;
2748;SDS011;1382;52.142;11.618;2023-04-01T16:23:39;1.73;;;1.63;;
2748;SDS011;1382;52.142;11.618;2023-04-01T16:26:15;1.70;;;1.43;;
2748;SDS011;1382;52.142;11.618;2023-04-01T16:28:48;2.30;;;1.60;;
2748;SDS011;1382;52.142;11.618;2023-04-01T16:31:25;1.37;;;1.27;;
2748;SDS011;1382;52.142;11.618;2023-04-01T16:33:58;1.00;;;1.00;;
2748;SDS011;1382;52.142;11.618;2023-04-01T16:36:32;2.60;;;2.10;;
2748;SDS011;1382;52.142;11.618;2023-04-01T16:42:11;1.70;;;1.50;;